INGA4: Red River, Index, AR

Data processed at Thu May 23 2019 23:50


All information presented herein is the property of the government of the United States of America and may be revised or deleted at any time without prior notice.
Dissemination of this information without the expressed written consent of the Public Affairs Office, Tulsa District U.S. Army Corps of Engineers is strictly prohibited.
These data are gathered electronically and, as presented, have not undergone any form of quality control. These data are not guaranteed to be valid or correct.
Go to home page.
Go to station list.
Go to home page.

Upstream stations:

Downstream station:
Previous Day
Next Day
Current Day
    
SHEF ID:       INGA4     Red River at Index, AR
STATION TYPE:  
Regulating: Stage =    19.80, Flow =    99988

               PRECIP     STAGE  RIV-FLOW  WTR-TEMP  BAT-LOAD
                   in        ft       cfs         F      volt
              Ccp-Rev   Ccp-Rev   Ccp-Rev   Ccp-Rev   Ccp-Rev
(US/Central)
05/23 00:00      0.00     13.88     67646     71.96     12.97
05/23 01:00      0.00     13.86     67539     71.96     12.89
05/23 02:00      0.00     13.94     67969     71.96     12.89
05/23 03:00      0.00     14.00     68292     71.78     12.89
05/23 04:00      0.00     13.97     68130     71.78     12.89
05/23 05:00      0.00     13.97     68130     71.78     12.81
05/23 06:00      0.00     13.96     68077     71.78     12.81
05/23 07:00      0.00     14.02     68400     71.60     12.81
05/23 08:00      0.00     14.02     68400     71.60     12.81
05/23 09:00      0.00     14.04     68507     71.78     12.81
05/23 10:00      0.00     13.98     68184     71.96     13.21
05/23 11:00      0.00     14.02     68400     72.14     13.60
05/23 12:00      0.00     14.08     68723     72.32     13.68
05/23 13:00      0.00     22.22    114087     72.50     13.53
05/23 14:00      0.00     15.17     74612     72.86     13.29
05/23 15:00      0.00     14.04     68507     73.04     13.29
05/23 16:00      0.00     14.00     68292     73.22     13.29
05/23 17:00      0.00     14.10     68831     73.40     13.29
05/23 18:00      0.00     14.08     68723     73.40     13.21
05/23 19:00      0.00     13.99     68238     73.58     13.05
05/23 20:00      0.00     14.03     68454     73.40     13.05
05/23 21:00      0.00     14.02     68400     73.40     12.97
05/23 22:00      0.00     14.04     68507     73.40     12.97
05/23 23:00      0.00     14.01     68346     73.40     12.97